Time;durP1;ratioP1;P1;durP2;ratioP2;P2;SDS_P1;SDS_P2;PMS_P1;PMS_P2;Temp;Humidity;BMP_temperature;BMP_pressure;BME280_temperature;BME280_humidity;BME280_pressure;Samples;Min_cycle;Max_cycle;Signal;HPM_P1;HPM_P2
2021/07/03 00:00:34;;;;;;;4.40;4.03;;;;;;;;;;5001774;28;20026;-80
2021/07/03 00:03:00;;;;;;;4.75;3.88;;;;;;;;;;5005667;28;20048;-79
2021/07/03 00:05:27;;;;;;;4.50;4.03;;;;;;;;;;5030457;28;20140;-81
2021/07/03 00:07:53;;;;;;;4.32;3.90;;;;;;;;;;5023050;28;20033;-80
2021/07/03 00:10:19;;;;;;;5.35;4.03;;;;;;;;;;5026948;28;20041;-79
2021/07/03 00:12:45;;;;;;;3.63;3.33;;;;;;;;;;5006933;28;20038;-79
2021/07/03 00:15:14;;;;;;;3.50;3.20;;;;;;;;;;5002831;28;20053;-80
2021/07/03 00:17:40;;;;;;;4.55;4.10;;;;;;;;;;5003441;28;20029;-81
2021/07/03 00:20:07;;;;;;;4.47;3.90;;;;;;;;;;5002607;28;20030;-81
2021/07/03 00:22:33;;;;;;;4.47;4.07;;;;;;;;;;5003583;28;20034;-80
2021/07/03 00:24:59;;;;;;;5.57;4.97;;;;;;;;;;4985029;28;20381;-79
2021/07/03 00:27:26;;;;;;;5.60;4.57;;;;;;;;;;4984498;28;20383;-80
2021/07/03 00:29:52;;;;;;;4.75;4.25;;;;;;;;;;5001661;28;20030;-79
2021/07/03 00:32:18;;;;;;;5.32;4.70;;;;;;;;;;5004296;28;20168;-79
2021/07/03 00:34:44;;;;;;;4.75;3.88;;;;;;;;;;5006366;28;20081;-82
2021/07/03 00:37:10;;;;;;;5.15;4.00;;;;;;;;;;5009621;28;20030;-79
2021/07/03 00:39:36;;;;;;;5.20;4.70;;;;;;;;;;5024714;28;20038;-80
2021/07/03 00:42:02;;;;;;;5.05;4.30;;;;;;;;;;5016580;28;20040;-80
2021/07/03 00:44:29;;;;;;;5.85;4.80;;;;;;;;;;5004969;28;20054;-79
2021/07/03 00:46:56;;;;;;;4.38;3.97;;;;;;;;;;5000403;28;20500;-79
2021/07/03 00:49:22;;;;;;;4.13;3.70;;;;;;;;;;4998986;28;20031;-78
2021/07/03 00:51:48;;;;;;;4.30;3.90;;;;;;;;;;5003950;28;20069;-79
2021/07/03 00:54:14;;;;;;;5.28;4.38;;;;;;;;;;4998770;28;20058;-79
2021/07/03 00:56:40;;;;;;;6.20;4.85;;;;;;;;;;5000082;28;20459;-79
2021/07/03 00:59:06;;;;;;;4.20;3.80;;;;;;;;;;5001340;28;20031;-80
2021/07/03 01:01:32;;;;;;;5.72;4.53;;;;;;;;;;5004308;28;20085;-80
2021/07/03 01:03:58;;;;;;;4.10;3.67;;;;;;;;;;5023402;28;20529;-79
2021/07/03 01:06:26;;;;;;;5.03;4.50;;;;;;;;;;5006120;28;20129;-78
2021/07/03 01:08:52;;;;;;;5.00;4.53;;;;;;;;;;4982535;28;20463;-79
2021/07/03 01:11:27;;;;;;;6.22;4.78;;;;;;;;;;5001615;28;20030;-79
2021/07/03 01:13:54;;;;;;;5.38;4.40;;;;;;;;;;4999557;28;20396;-80
2021/07/03 01:16:20;;;;;;;6.20;4.75;;;;;;;;;;5000875;28;20073;-80
2021/07/03 01:18:46;;;;;;;5.70;5.00;;;;;;;;;;5000596;28;20031;-79
2021/07/03 01:21:15;;;;;;;6.82;5.40;;;;;;;;;;4999944;28;20038;-79
2021/07/03 01:23:41;;;;;;;5.78;4.57;;;;;;;;;;4999545;28;20022;-80
2021/07/03 01:26:07;;;;;;;4.30;3.90;;;;;;;;;;5000055;28;20032;-80
2021/07/03 01:28:33;;;;;;;4.57;4.18;;;;;;;;;;5001133;28;20019;-79
2021/07/03 01:30:59;;;;;;;4.45;3.92;;;;;;;;;;5002477;28;20053;-79
2021/07/03 01:33:25;;;;;;;4.57;4.18;;;;;;;;;;5003103;28;20029;-80
2021/07/03 01:35:51;;;;;;;4.00;3.63;;;;;;;;;;5016129;28;20029;-80
2021/07/03 01:38:18;;;;;;;4.78;4.38;;;;;;;;;;5019581;28;20053;-80
2021/07/03 01:40:45;;;;;;;4.30;3.90;;;;;;;;;;5020212;28;20034;-80
2021/07/03 01:43:11;;;;;;;4.32;3.92;;;;;;;;;;5003187;28;20116;-80
2021/07/03 01:45:37;;;;;;;3.92;3.58;;;;;;;;;;5003702;28;20030;-80
2021/07/03 01:48:03;;;;;;;4.60;4.20;;;;;;;;;;5000879;28;20083;-80
2021/07/03 01:50:29;;;;;;;4.22;3.83;;;;;;;;;;4983214;28;20114;-82
2021/07/03 01:52:55;;;;;;;4.10;3.70;;;;;;;;;;5008381;28;20094;-79
2021/07/03 01:55:21;;;;;;;4.68;4.20;;;;;;;;;;5008096;28;20034;-80
2021/07/03 01:57:47;;;;;;;5.43;4.68;;;;;;;;;;5001839;28;20060;-80
2021/07/03 02:00:14;;;;;;;5.03;4.50;;;;;;;;;;4986019;28;20030;-81
2021/07/03 02:02:40;;;;;;;4.82;4.32;;;;;;;;;;5000812;28;20030;-80
2021/07/03 02:05:07;;;;;;;4.38;3.92;;;;;;;;;;4999907;23;20046;-80
2021/07/03 02:07:33;;;;;;;4.15;3.75;;;;;;;;;;5013949;28;20070;-81
2021/07/03 02:10:00;;;;;;;4.65;3.92;;;;;;;;;;4983843;28;20023;-81
2021/07/03 02:12:26;;;;;;;3.70;3.40;;;;;;;;;;4984649;28;20062;-81
2021/07/03 02:14:55;;;;;;;5.97;4.35;;;;;;;;;;4984336;28;20026;-82
2021/07/03 02:17:21;;;;;;;4.72;4.20;;;;;;;;;;4984013;28;20089;-81
2021/07/03 02:19:47;;;;;;;4.60;4.20;;;;;;;;;;4983100;28;20031;-81
2021/07/03 02:22:13;;;;;;;4.25;3.92;;;;;;;;;;4983532;28;20038;-81
2021/07/03 02:24:39;;;;;;;4.60;3.85;;;;;;;;;;4983958;28;20034;-81
2021/07/03 02:27:05;;;;;;;4.70;4.20;;;;;;;;;;4981956;28;20070;-81
2021/07/03 02:29:31;;;;;;;3.85;3.42;;;;;;;;;;4983670;28;20027;-81
2021/07/03 02:31:57;;;;;;;4.53;4.10;;;;;;;;;;4983552;28;20037;-81
2021/07/03 02:34:23;;;;;;;4.47;3.88;;;;;;;;;;4993008;28;20023;-82
2021/07/03 02:36:49;;;;;;;4.00;3.60;;;;;;;;;;4980847;28;20082;-81
2021/07/03 02:39:15;;;;;;;5.28;4.22;;;;;;;;;;4980007;28;20107;-82
2021/07/03 02:41:41;;;;;;;4.10;3.70;;;;;;;;;;4980578;28;20039;-81
2021/07/03 02:44:07;;;;;;;4.57;4.15;;;;;;;;;;4971933;28;20055;-82
2021/07/03 02:46:33;;;;;;;4.75;4.05;;;;;;;;;;4970610;29;20079;-82
2021/07/03 02:48:59;;;;;;;4.63;3.75;;;;;;;;;;4970459;29;20015;-82
2021/07/03 02:51:26;;;;;;;4.50;4.07;;;;;;;;;;4974191;29;20015;-82
2021/07/03 02:53:52;;;;;;;4.60;4.20;;;;;;;;;;4973256;28;20109;-82
2021/07/03 02:56:18;;;;;;;5.45;4.25;;;;;;;;;;4993488;28;20030;-81
2021/07/03 02:58:44;;;;;;;4.47;3.97;;;;;;;;;;4992165;28;20038;-81
2021/07/03 03:01:10;;;;;;;4.05;3.65;;;;;;;;;;4987841;28;20503;-82
2021/07/03 03:03:36;;;;;;;5.40;4.32;;;;;;;;;;4994403;28;20030;-82
2021/07/03 03:06:02;;;;;;;6.65;5.35;;;;;;;;;;4985323;28;20037;-82
2021/07/03 03:08:28;;;;;;;6.43;5.45;;;;;;;;;;4981117;28;20031;-82
2021/07/03 03:10:54;;;;;;;6.20;5.30;;;;;;;;;;4981508;28;20031;-82
2021/07/03 03:13:20;;;;;;;5.65;5.15;;;;;;;;;;4980905;28;20031;-81
2021/07/03 03:15:47;;;;;;;8.05;5.00;;;;;;;;;;4983478;28;20585;-81
2021/07/03 03:18:13;;;;;;;6.28;4.43;;;;;;;;;;4983876;28;20049;-83
2021/07/03 03:20:39;;;;;;;7.05;4.60;;;;;;;;;;4979664;28;20058;-81
2021/07/03 03:23:05;;;;;;;4.95;4.45;;;;;;;;;;4971649;28;20057;-82
2021/07/03 03:25:31;;;;;;;5.50;4.40;;;;;;;;;;4964515;29;20051;-82
2021/07/03 03:27:57;;;;;;;6.03;4.70;;;;;;;;;;4963581;29;20056;-82
2021/07/03 03:30:23;;;;;;;5.25;4.15;;;;;;;;;;4967722;28;20037;-81
2021/07/03 03:32:49;;;;;;;3.88;3.38;;;;;;;;;;4981640;28;20318;-82
2021/07/03 03:35:15;;;;;;;5.63;4.10;;;;;;;;;;4990502;28;20089;-82
2021/07/03 03:37:41;;;;;;;3.88;3.47;;;;;;;;;;4982067;28;20038;-82
2021/07/03 03:40:08;;;;;;;4.03;3.38;;;;;;;;;;4981924;28;20511;-81
2021/07/03 03:42:34;;;;;;;3.92;3.53;;;;;;;;;;4963778;28;20086;-82
2021/07/03 03:45:00;;;;;;;4.03;3.63;;;;;;;;;;4963439;28;20071;-82
2021/07/03 03:47:26;;;;;;;4.15;3.53;;;;;;;;;;4963306;29;20038;-82
2021/07/03 03:49:52;;;;;;;4.35;3.83;;;;;;;;;;4963354;29;20063;-82
2021/07/03 03:52:18;;;;;;;4.57;3.78;;;;;;;;;;4963679;28;20069;-81
2021/07/03 03:54:44;;;;;;;5.05;4.07;;;;;;;;;;4963245;28;20031;-82
2021/07/03 03:57:24;;;;;;;4.63;3.92;;;;;;;;;;4963569;29;20038;-82
2021/07/03 03:59:50;;;;;;;4.32;3.70;;;;;;;;;;4970111;28;20075;-81
2021/07/03 04:02:22;;;;;;;6.05;4.28;;;;;;;;;;4973869;28;20532;-81
2021/07/03 04:04:52;;;;;;;4.45;4.05;;;;;;;;;;4991901;28;20014;-81
2021/07/03 04:07:19;;;;;;;6.15;4.43;;;;;;;;;;5006918;28;20030;-81
2021/07/03 04:09:45;;;;;;;5.10;4.55;;;;;;;;;;5015122;28;20018;-80
2021/07/03 04:12:11;;;;;;;5.80;5.20;;;;;;;;;;4996588;28;20054;-81
2021/07/03 04:14:37;;;;;;;5.88;4.80;;;;;;;;;;4983703;28;20573;-81
2021/07/03 04:17:04;;;;;;;5.43;4.93;;;;;;;;;;4983230;28;20084;-81
2021/07/03 04:19:30;;;;;;;4.75;4.25;;;;;;;;;;4982294;28;20110;-81
2021/07/03 04:21:56;;;;;;;5.97;5.22;;;;;;;;;;4982598;28;20031;-81
2021/07/03 04:24:22;;;;;;;7.00;5.72;;;;;;;;;;4982054;28;20027;-81
2021/07/03 04:26:49;;;;;;;5.88;4.97;;;;;;;;;;4982652;28;20023;-81
2021/07/03 04:29:15;;;;;;;6.88;5.38;;;;;;;;;;4985075;28;20011;-81
2021/07/03 04:31:41;;;;;;;6.32;5.55;;;;;;;;;;4997004;28;20042;-81
2021/07/03 04:34:07;;;;;;;9.02;5.82;;;;;;;;;;5006603;28;20043;-82
2021/07/03 04:36:33;;;;;;;10.05;5.68;;;;;;;;;;5015879;28;20022;-81
2021/07/03 04:38:59;;;;;;;6.63;5.63;;;;;;;;;;5016396;28;20022;-82
2021/07/03 04:41:25;;;;;;;8.38;5.75;;;;;;;;;;5014273;28;20030;-81
2021/07/03 04:43:51;;;;;;;7.07;5.30;;;;;;;;;;4997194;28;20013;-81
2021/07/03 04:46:18;;;;;;;5.47;4.85;;;;;;;;;;4986575;28;20105;-80
2021/07/03 04:48:44;;;;;;;6.55;4.90;;;;;;;;;;4983174;28;20026;-81
2021/07/03 04:51:10;;;;;;;6.50;5.28;;;;;;;;;;4982935;28;20023;-82
2021/07/03 04:53:36;;;;;;;6.00;5.35;;;;;;;;;;4983666;28;20058;-82
2021/07/03 04:56:05;;;;;;;5.28;4.78;;;;;;;;;;4982511;28;20047;-81
2021/07/03 04:58:33;;;;;;;4.68;4.28;;;;;;;;;;4980691;28;20118;-80
2021/07/03 05:00:59;;;;;;;5.47;4.50;;;;;;;;;;4981178;28;20065;-80
2021/07/03 05:03:25;;;;;;;4.85;4.35;;;;;;;;;;4997117;28;20050;-81
2021/07/03 05:05:51;;;;;;;4.72;4.20;;;;;;;;;;5009623;28;20408;-80
2021/07/03 05:08:17;;;;;;;4.65;4.22;;;;;;;;;;5005792;28;20083;-80
2021/07/03 05:10:43;;;;;;;7.55;4.97;;;;;;;;;;5001198;28;20026;-80
2021/07/03 05:13:09;;;;;;;6.35;4.70;;;;;;;;;;4994272;28;20031;-80
2021/07/03 05:15:35;;;;;;;5.68;4.43;;;;;;;;;;4982187;28;20417;-80
2021/07/03 05:18:02;;;;;;;4.43;3.58;;;;;;;;;;4980909;28;20121;-80
2021/07/03 05:20:28;;;;;;;5.55;4.75;;;;;;;;;;4980214;28;20081;-80
2021/07/03 05:22:54;;;;;;;4.38;3.97;;;;;;;;;;4981978;28;20054;-81
2021/07/03 05:25:24;;;;;;;4.97;4.53;;;;;;;;;;4988718;28;20488;-83
2021/07/03 05:27:50;;;;;;;4.82;4.25;;;;;;;;;;4978437;28;20090;-80
2021/07/03 05:30:16;;;;;;;3.70;3.40;;;;;;;;;;4978037;28;20023;-82
2021/07/03 05:32:42;;;;;;;4.05;3.65;;;;;;;;;;4981974;28;20042;-81
2021/07/03 05:35:08;;;;;;;3.75;3.35;;;;;;;;;;4990240;28;20030;-80
2021/07/03 05:37:34;;;;;;;3.92;3.58;;;;;;;;;;5012470;28;20016;-82
2021/07/03 05:40:00;;;;;;;5.57;3.72;;;;;;;;;;5004745;28;20053;-82
2021/07/03 05:42:27;;;;;;;3.47;3.17;;;;;;;;;;4998813;28;20038;-80
2021/07/03 05:44:53;;;;;;;3.60;3.30;;;;;;;;;;4985717;28;20073;-82
2021/07/03 05:47:20;;;;;;;3.60;3.30;;;;;;;;;;4981957;28;20031;-83
2021/07/03 05:49:46;;;;;;;4.22;3.83;;;;;;;;;;4983394;28;20023;-80
2021/07/03 05:52:12;;;;;;;4.60;4.07;;;;;;;;;;4979577;28;20027;-80
2021/07/03 05:54:38;;;;;;;4.28;3.80;;;;;;;;;;4978317;28;20595;-80
2021/07/03 05:57:04;;;;;;;3.85;3.20;;;;;;;;;;4978916;28;20069;-80
2021/07/03 05:59:31;;;;;;;3.58;3.28;;;;;;;;;;4981496;28;20033;-80
2021/07/03 06:01:57;;;;;;;3.45;3.15;;;;;;;;;;4981636;28;20083;-79
2021/07/03 06:04:23;;;;;;;3.42;3.22;;;;;;;;;;4988033;28;20039;-80
2021/07/03 06:06:50;;;;;;;2.97;2.78;;;;;;;;;;4980604;28;20101;-81
2021/07/03 06:09:16;;;;;;;3.42;3.13;;;;;;;;;;4980572;28;20019;-81
2021/07/03 06:11:42;;;;;;;2.90;2.70;;;;;;;;;;4987015;28;20098;-81
2021/07/03 06:14:11;;;;;;;3.05;2.85;;;;;;;;;;4991346;28;20031;-80
2021/07/03 06:16:40;;;;;;;2.90;2.70;;;;;;;;;;4975932;28;20039;-81
2021/07/03 06:19:06;;;;;;;3.03;2.70;;;;;;;;;;4978129;28;20034;-81
2021/07/03 06:21:32;;;;;;;3.00;2.80;;;;;;;;;;4983419;28;20058;-82
2021/07/03 06:24:01;;;;;;;2.80;2.60;;;;;;;;;;4982743;28;20394;-81
2021/07/03 06:26:29;;;;;;;3.05;2.83;;;;;;;;;;4967043;28;20039;-80
2021/07/03 06:28:55;;;;;;;3.13;2.83;;;;;;;;;;4961906;28;20026;-80
2021/07/03 06:31:22;;;;;;;3.17;2.97;;;;;;;;;;4963861;28;20031;-81
2021/07/03 06:33:48;;;;;;;2.50;2.40;;;;;;;;;;4988769;28;20090;-81
2021/07/03 06:36:14;;;;;;;2.28;2.17;;;;;;;;;;4979127;28;20447;-81
2021/07/03 06:38:40;;;;;;;4.93;3.25;;;;;;;;;;4981097;28;20027;-82
2021/07/03 06:41:06;;;;;;;3.70;3.10;;;;;;;;;;4980587;28;20086;-81
2021/07/03 06:43:32;;;;;;;3.20;2.90;;;;;;;;;;4981012;28;20057;-80
2021/07/03 06:45:58;;;;;;;2.70;2.50;;;;;;;;;;4974360;28;20023;-80
2021/07/03 06:48:24;;;;;;;3.50;3.22;;;;;;;;;;4961299;28;20023;-81
2021/07/03 06:50:50;;;;;;;4.85;2.83;;;;;;;;;;4964640;29;20042;-81
2021/07/03 06:53:19;;;;;;;2.72;2.53;;;;;;;;;;4964122;29;20034;-81
2021/07/03 06:55:45;;;;;;;2.83;2.63;;;;;;;;;;4964360;28;20392;-81
2021/07/03 06:58:11;;;;;;;3.13;2.92;;;;;;;;;;4982195;28;20026;-81
2021/07/03 07:00:40;;;;;;;2.55;2.45;;;;;;;;;;4981907;28;20031;-81
2021/07/03 07:03:09;;;;;;;3.08;2.80;;;;;;;;;;4990810;28;20113;-81
2021/07/03 07:05:35;;;;;;;2.95;2.75;;;;;;;;;;4996194;28;20046;-81
2021/07/03 07:08:01;;;;;;;5.10;3.10;;;;;;;;;;4986089;28;20035;-81
2021/07/03 07:10:27;;;;;;;3.08;2.78;;;;;;;;;;4983317;28;20031;-82
2021/07/03 07:12:53;;;;;;;2.92;2.72;;;;;;;;;;4982239;28;20037;-79
2021/07/03 07:15:19;;;;;;;2.90;2.70;;;;;;;;;;4982551;28;20050;-79
2021/07/03 07:17:45;;;;;;;2.85;2.65;;;;;;;;;;4983128;28;20109;-80
2021/07/03 07:20:14;;;;;;;2.50;2.40;;;;;;;;;;4982618;28;20086;-80
2021/07/03 07:22:41;;;;;;;3.50;3.20;;;;;;;;;;4983299;28;20023;-80
2021/07/03 07:25:07;;;;;;;3.00;2.80;;;;;;;;;;4982226;28;20031;-80
2021/07/03 07:27:33;;;;;;;3.33;3.08;;;;;;;;;;4981470;28;20041;-79
2021/07/03 07:30:00;;;;;;;3.70;3.30;;;;;;;;;;4981838;28;20034;-80
2021/07/03 07:32:26;;;;;;;3.38;3.17;;;;;;;;;;4989644;28;20023;-80
2021/07/03 07:34:53;;;;;;;3.70;3.40;;;;;;;;;;4996451;28;20062;-82
2021/07/03 07:37:19;;;;;;;4.30;3.50;;;;;;;;;;5003029;28;20030;-80
2021/07/03 07:39:45;;;;;;;3.53;3.22;;;;;;;;;;4985229;28;20038;-80
2021/07/03 07:42:11;;;;;;;3.92;3.20;;;;;;;;;;4983485;28;20031;-80
2021/07/03 07:44:37;;;;;;;4.70;3.15;;;;;;;;;;4984903;28;20042;-80
2021/07/03 07:47:03;;;;;;;6.43;4.35;;;;;;;;;;4985530;28;20101;-80
2021/07/03 07:49:29;;;;;;;4.28;3.88;;;;;;;;;;4987980;28;20026;-80
2021/07/03 07:51:56;;;;;;;5.10;4.55;;;;;;;;;;4986560;28;20030;-80
2021/07/03 07:54:22;;;;;;;4.57;4.15;;;;;;;;;;4988135;28;20110;-80
2021/07/03 07:56:48;;;;;;;4.95;4.35;;;;;;;;;;4989568;28;20061;-80
2021/07/03 07:59:14;;;;;;;6.30;4.10;;;;;;;;;;4991139;28;20064;-80
2021/07/03 08:01:40;;;;;;;5.90;4.75;;;;;;;;;;4989007;28;20027;-80
2021/07/03 08:04:06;;;;;;;4.30;3.90;;;;;;;;;;4998454;28;20027;-80
2021/07/03 08:06:32;;;;;;;4.43;4.00;;;;;;;;;;5017736;22;20053;-80
2021/07/03 08:08:59;;;;;;;3.97;3.60;;;;;;;;;;4987906;28;20034;-80
2021/07/03 08:11:25;;;;;;;5.18;4.68;;;;;;;;;;4982206;28;20051;-80
2021/07/03 08:13:51;;;;;;;6.35;4.43;;;;;;;;;;5000591;28;20478;-79
2021/07/03 08:16:17;;;;;;;4.28;3.92;;;;;;;;;;4999561;28;20046;-78
2021/07/03 08:18:43;;;;;;;4.40;4.00;;;;;;;;;;4999322;28;20029;-80
2021/07/03 08:21:09;;;;;;;4.50;3.72;;;;;;;;;;4982567;28;20030;-80
2021/07/03 08:23:35;;;;;;;4.07;3.67;;;;;;;;;;4983434;28;20446;-80
2021/07/03 08:26:01;;;;;;;6.03;4.13;;;;;;;;;;5001549;28;20043;-80
2021/07/03 08:28:27;;;;;;;4.50;4.00;;;;;;;;;;5004075;28;20030;-79
2021/07/03 08:30:53;;;;;;;4.47;4.07;;;;;;;;;;4994552;28;20023;-79
2021/07/03 08:33:20;;;;;;;4.80;3.90;;;;;;;;;;5013494;28;20029;-79
2021/07/03 08:35:46;;;;;;;3.85;3.53;;;;;;;;;;4998074;28;20022;-80
2021/07/03 08:38:12;;;;;;;4.68;3.85;;;;;;;;;;5004154;28;20490;-82
2021/07/03 08:40:38;;;;;;;6.00;4.30;;;;;;;;;;5010691;28;20501;-80
2021/07/03 08:43:04;;;;;;;5.20;4.40;;;;;;;;;;5003018;28;20034;-81
2021/07/03 08:45:30;;;;;;;5.30;4.25;;;;;;;;;;5014596;28;20030;-79
2021/07/03 08:47:56;;;;;;;4.65;4.18;;;;;;;;;;5005056;28;20038;-81
2021/07/03 08:50:22;;;;;;;5.95;4.25;;;;;;;;;;5013618;28;20038;-80
2021/07/03 08:52:48;;;;;;;4.72;4.32;;;;;;;;;;5005948;28;20061;-81
2021/07/03 08:55:14;;;;;;;3.90;3.50;;;;;;;;;;4985046;28;20038;-80
2021/07/03 08:57:42;;;;;;;7.03;3.85;;;;;;;;;;4986714;28;20094;-81
2021/07/03 09:00:08;;;;;;;4.32;3.80;;;;;;;;;;4984667;28;20058;-80
2021/07/03 09:02:38;;;;;;;4.47;3.88;;;;;;;;;;5006115;28;20037;-81
2021/07/03 09:05:07;;;;;;;4.30;3.88;;;;;;;;;;4991217;28;20110;-80
2021/07/03 09:07:34;;;;;;;4.55;3.72;;;;;;;;;;4980734;28;20026;-81
2021/07/03 09:10:01;;;;;;;4.90;4.13;;;;;;;;;;4980687;28;20077;-81
2021/07/03 09:12:31;;;;;;;4.28;3.88;;;;;;;;;;4982833;28;20125;-80
2021/07/03 09:15:08;;;;;;;4.22;3.83;;;;;;;;;;5000909;28;20102;-82
2021/07/03 09:17:44;;;;;;;4.70;4.20;;;;;;;;;;4982787;28;20116;-80
2021/07/03 09:20:10;;;;;;;4.55;4.10;;;;;;;;;;4981558;28;20034;-80
2021/07/03 09:22:36;;;;;;;6.82;3.80;;;;;;;;;;4999578;28;20037;-81
2021/07/03 09:25:03;;;;;;;4.70;3.78;;;;;;;;;;4982935;28;20034;-79
2021/07/03 09:27:29;;;;;;;4.63;4.03;;;;;;;;;;5002398;28;20073;-80
2021/07/03 09:29:55;;;;;;;4.07;3.67;;;;;;;;;;4999239;28;20535;-80
2021/07/03 09:32:27;;;;;;;5.13;4.28;;;;;;;;;;5006631;28;20030;-81
2021/07/03 09:34:53;;;;;;;;;;;;;;;;;;4984577;28;20483;-81
2021/07/03 09:37:22;;;;;;;4.15;3.72;;;;;;;;;;4964725;28;19906;-82
2021/07/03 09:39:48;;;;;;;4.15;3.83;;;;;;;;;;4983065;28;20077;-81
2021/07/03 09:42:14;;;;;;;4.35;4.00;;;;;;;;;;4973416;28;20046;-81
2021/07/03 09:44:40;;;;;;;6.30;4.10;;;;;;;;;;4982951;28;20037;-80
2021/07/03 09:47:15;;;;;;;4.43;4.03;;;;;;;;;;4981645;28;20022;-80
2021/07/03 09:49:41;;;;;;;4.47;4.00;;;;;;;;;;5000435;28;20029;-80
2021/07/03 09:52:07;;;;;;;4.43;4.03;;;;;;;;;;5002373;28;20030;-82
2021/07/03 09:54:33;;;;;;;5.07;4.25;;;;;;;;;;5000895;28;20034;-81
2021/07/03 09:56:59;;;;;;;4.65;4.15;;;;;;;;;;5001047;28;20397;-82
2021/07/03 09:59:35;;;;;;;7.57;4.97;;;;;;;;;;5000684;28;20030;-81
2021/07/03 10:02:01;;;;;;;5.47;4.57;;;;;;;;;;5001686;28;20033;-81
2021/07/03 10:04:27;;;;;;;3.95;3.65;;;;;;;;;;4999849;28;20494;-81
2021/07/03 10:07:02;;;;;;;5.05;4.57;;;;;;;;;;5001080;28;20030;-80
2021/07/03 10:09:28;;;;;;;4.78;4.20;;;;;;;;;;4993893;28;20028;-79
2021/07/03 10:11:56;;;;;;;5.63;4.07;;;;;;;;;;4982172;28;20081;-80
2021/07/03 10:14:22;;;;;;;5.20;4.28;;;;;;;;;;4999956;28;20046;-81
2021/07/03 10:16:59;;;;;;;6.85;4.43;;;;;;;;;;4984037;28;20029;-81
2021/07/03 10:19:31;;;;;;;5.47;4.38;;;;;;;;;;4998094;28;20133;-81
2021/07/03 10:22:10;;;;;;;4.78;4.35;;;;;;;;;;5000799;28;20030;-81
2021/07/03 10:24:41;;;;;;;4.40;4.05;;;;;;;;;;4999620;28;20018;-81
2021/07/03 10:27:15;;;;;;;4.20;3.80;;;;;;;;;;5000346;28;20403;-80
2021/07/03 10:29:43;;;;;;;4.88;4.35;;;;;;;;;;4981325;28;20026;-80
2021/07/03 10:32:18;;;;;;;5.15;4.65;;;;;;;;;;5001086;28;20442;-80
2021/07/03 10:34:44;;;;;;;5.30;4.50;;;;;;;;;;5010497;28;20030;-81
2021/07/03 10:37:10;;;;;;;5.13;4.65;;;;;;;;;;4999275;28;20038;-80
2021/07/03 10:39:36;;;;;;;6.53;5.50;;;;;;;;;;5000775;28;20030;-81
2021/07/03 10:42:03;;;;;;;5.22;4.72;;;;;;;;;;4999723;28;20034;-80
2021/07/03 10:44:55;;;;;;;6.30;4.97;;;;;;;;;;4999600;28;20035;-81
2021/07/03 10:47:21;;;;;;;;;;;;;;;;;;4977908;28;20521;-81
2021/07/03 10:49:47;;;;;;;6.22;4.43;;;;;;;;;;4999356;28;19910;-81
2021/07/03 10:52:14;;;;;;;5.80;5.30;;;;;;;;;;4985218;28;20030;-79
2021/07/03 10:54:40;;;;;;;9.18;5.95;;;;;;;;;;5001719;28;20026;-79
2021/07/03 10:57:11;;;;;;;4.65;4.25;;;;;;;;;;5000226;28;20026;-82
2021/07/03 10:59:38;;;;;;;9.63;5.28;;;;;;;;;;4984019;28;20033;-81
2021/07/03 11:02:08;;;;;;;6.25;4.93;;;;;;;;;;4983342;28;20236;-80
2021/07/03 11:04:46;;;;;;;5.53;4.50;;;;;;;;;;4983498;28;20035;-81
2021/07/03 11:07:13;;;;;;;3.97;3.60;;;;;;;;;;5003541;28;20030;-82
2021/07/03 11:09:40;;;;;;;5.55;5.00;;;;;;;;;;5002283;28;20046;-80
2021/07/03 11:12:14;;;;;;;4.65;4.25;;;;;;;;;;5001824;28;20101;-80
2021/07/03 11:15:00;;;;;;;6.07;5.00;;;;;;;;;;5001821;28;20491;-83
2021/07/03 11:17:27;;;;;;;5.03;4.35;;;;;;;;;;4987606;28;20128;-82
2021/07/03 11:19:54;;;;;;;4.90;4.40;;;;;;;;;;5008971;28;20027;-83
2021/07/03 11:22:25;;;;;;;4.20;3.80;;;;;;;;;;4996418;28;20015;-84
2021/07/03 11:24:55;;;;;;;5.97;4.50;;;;;;;;;;5002854;28;20286;-81
2021/07/03 11:27:32;;;;;;;5.43;4.93;;;;;;;;;;5002544;28;20078;-82
2021/07/03 11:30:03;;;;;;;5.20;4.70;;;;;;;;;;4998804;28;20054;-84
2021/07/03 11:32:29;;;;;;;4.27;3.93;;;;;;;;;;4996465;28;20053;-83
2021/07/03 11:34:59;;;;;;;4.32;3.92;;;;;;;;;;5008273;28;20131;-84
2021/07/03 11:37:32;;;;;;;4.50;4.10;;;;;;;;;;5013857;28;20295;-82
2021/07/03 11:39:59;;;;;;;6.38;4.20;;;;;;;;;;5006304;28;20102;-83
2021/07/03 11:42:26;;;;;;;5.03;4.13;;;;;;;;;;5003608;28;20026;-79
2021/07/03 11:44:53;;;;;;;4.22;3.78;;;;;;;;;;4987766;28;21447;-81
2021/07/03 11:47:19;;;;;;;5.38;4.43;;;;;;;;;;4987101;28;20117;-81
2021/07/03 11:49:45;;;;;;;5.00;4.55;;;;;;;;;;4987331;28;20112;-81
2021/07/03 11:52:11;;;;;;;5.85;3.95;;;;;;;;;;5016423;28;20018;-79
2021/07/03 11:54:37;;;;;;;4.75;4.07;;;;;;;;;;5003149;28;20038;-80
2021/07/03 11:57:04;;;;;;;4.25;3.85;;;;;;;;;;5017396;28;20023;-81
2021/07/03 11:59:30;;;;;;;4.50;4.10;;;;;;;;;;5017755;28;20027;-80
2021/07/03 12:01:56;;;;;;;6.25;3.90;;;;;;;;;;4997272;28;20026;-81
2021/07/03 12:04:22;;;;;;;4.70;4.22;;;;;;;;;;5001276;28;20042;-82
2021/07/03 12:06:57;;;;;;;4.43;4.03;;;;;;;;;;4999307;28;20030;-79
2021/07/03 12:09:23;;;;;;;5.40;4.28;;;;;;;;;;5006026;28;20034;-81
2021/07/03 12:11:55;;;;;;;4.40;4.00;;;;;;;;;;5010949;28;20042;-80
2021/07/03 12:14:21;;;;;;;5.13;4.63;;;;;;;;;;4990000;28;20049;-82
2021/07/03 12:16:55;;;;;;;4.10;3.75;;;;;;;;;;5004979;28;20435;-82
2021/07/03 12:19:21;;;;;;;6.10;4.38;;;;;;;;;;5005325;28;20026;-82
2021/07/03 12:21:47;;;;;;;7.03;4.53;;;;;;;;;;5009221;28;20054;-80
2021/07/03 12:24:14;;;;;;;5.30;4.20;;;;;;;;;;5000348;28;20039;-80
2021/07/03 12:26:49;;;;;;;4.10;3.53;;;;;;;;;;5017325;28;20046;-81
2021/07/03 12:29:24;;;;;;;4.72;3.90;;;;;;;;;;4999004;28;20030;-81
2021/07/03 12:31:50;;;;;;;4.28;3.88;;;;;;;;;;5011092;28;20176;-82
2021/07/03 12:34:22;;;;;;;4.10;3.70;;;;;;;;;;5012315;28;20026;-82
2021/07/03 12:36:50;;;;;;;4.15;3.78;;;;;;;;;;5003437;28;20034;-82
2021/07/03 12:39:25;;;;;;;5.10;4.05;;;;;;;;;;5003274;28;20026;-82
2021/07/03 12:42:01;;;;;;;4.18;3.78;;;;;;;;;;4986729;28;20049;-82
2021/07/03 12:44:31;;;;;;;4.50;3.50;;;;;;;;;;4985837;28;20015;-82
2021/07/03 12:47:01;;;;;;;4.20;3.85;;;;;;;;;;5005405;28;20050;-82
2021/07/03 12:49:35;;;;;;;4.15;3.75;;;;;;;;;;4987793;28;20022;-83
2021/07/03 12:52:01;;;;;;;4.32;3.92;;;;;;;;;;4987485;28;20379;-83
2021/07/03 12:54:27;;;;;;;4.10;3.30;;;;;;;;;;5005194;28;20027;-83
2021/07/03 12:56:54;;;;;;;4.22;3.83;;;;;;;;;;4987207;28;20138;-83
2021/07/03 12:59:20;;;;;;;4.57;3.00;;;;;;;;;;4987414;28;20517;-82
2021/07/03 13:01:46;;;;;;;4.07;3.60;;;;;;;;;;5006589;28;20036;-83
2021/07/03 13:04:12;;;;;;;3.85;3.53;;;;;;;;;;5014967;28;20204;-83
2021/07/03 13:06:39;;;;;;;3.83;3.53;;;;;;;;;;5007757;28;20042;-83
2021/07/03 13:09:05;;;;;;;4.07;3.67;;;;;;;;;;5007022;28;20029;-83
2021/07/03 13:11:32;;;;;;;4.03;3.65;;;;;;;;;;5007113;28;20082;-84
2021/07/03 13:13:58;;;;;;;5.38;4.00;;;;;;;;;;5006337;28;20026;-82
2021/07/03 13:16:25;;;;;;;4.07;3.72;;;;;;;;;;5008073;28;20032;-84
2021/07/03 13:18:51;;;;;;;4.53;4.13;;;;;;;;;;4990834;28;20026;-83
2021/07/03 13:21:17;;;;;;;5.47;3.95;;;;;;;;;;4989428;28;20022;-82
2021/07/03 13:23:43;;;;;;;4.10;3.75;;;;;;;;;;4990160;28;20081;-82
2021/07/03 13:26:11;;;;;;;3.88;3.58;;;;;;;;;;4991185;28;20447;-82
2021/07/03 13:28:39;;;;;;;4.47;3.88;;;;;;;;;;5010494;28;20023;-80
2021/07/03 13:31:05;;;;;;;4.60;4.20;;;;;;;;;;5013759;28;20022;-84
2021/07/03 13:33:32;;;;;;;4.60;3.35;;;;;;;;;;4995034;28;20399;-82
2021/07/03 13:35:58;;;;;;;4.07;3.67;;;;;;;;;;5018254;28;20019;-82
2021/07/03 13:38:24;;;;;;;5.28;3.90;;;;;;;;;;4988756;28;20026;-82
2021/07/03 13:40:50;;;;;;;4.13;3.72;;;;;;;;;;5014670;28;20014;-81
2021/07/03 13:43:17;;;;;;;3.63;3.33;;;;;;;;;;5014131;28;20040;-82
2021/07/03 13:45:43;;;;;;;4.13;3.72;;;;;;;;;;4984805;28;20030;-82
2021/07/03 13:48:09;;;;;;;3.85;3.45;;;;;;;;;;4986946;28;20026;-83
2021/07/03 13:50:35;;;;;;;5.45;3.55;;;;;;;;;;4987242;28;20034;-85
2021/07/03 13:53:01;;;;;;;3.90;3.22;;;;;;;;;;5003269;28;20034;-83
2021/07/03 13:55:27;;;;;;;5.63;3.30;;;;;;;;;;4988133;28;20026;-82
2021/07/03 13:57:54;;;;;;;3.35;3.10;;;;;;;;;;4998391;28;20026;-82
2021/07/03 14:00:20;;;;;;;4.28;3.85;;;;;;;;;;5007068;28;20033;-82
2021/07/03 14:02:46;;;;;;;3.80;3.50;;;;;;;;;;4973455;28;20135;-82
2021/07/03 14:05:12;;;;;;;4.88;3.83;;;;;;;;;;5010914;22;20480;-75
2021/07/03 14:07:39;;;;;;;3.70;3.40;;;;;;;;;;5015917;28;20037;-75
2021/07/03 14:10:06;;;;;;;4.40;4.00;;;;;;;;;;5012563;28;20026;-76
2021/07/03 14:12:32;;;;;;;4.25;3.83;;;;;;;;;;5013309;28;20072;-76
2021/07/03 14:15:01;;;;;;;4.20;3.80;;;;;;;;;;5012826;28;20022;-76
2021/07/03 14:17:30;;;;;;;4.07;3.70;;;;;;;;;;5013334;28;20029;-75
2021/07/03 14:19:56;;;;;;;3.65;3.35;;;;;;;;;;5012696;28;20033;-76
2021/07/03 14:22:22;;;;;;;4.20;3.40;;;;;;;;;;5012007;28;20386;-76
2021/07/03 14:24:48;;;;;;;4.15;3.85;;;;;;;;;;5016481;28;20033;-75
2021/07/03 14:27:14;;;;;;;3.70;3.40;;;;;;;;;;5033114;28;20524;-75
2021/07/03 14:29:40;;;;;;;3.75;3.45;;;;;;;;;;5013243;28;20056;-75
2021/07/03 14:32:06;;;;;;;4.07;3.67;;;;;;;;;;5007320;28;20375;-75
2021/07/03 14:34:32;;;;;;;4.18;3.53;;;;;;;;;;5001508;28;20040;-75
2021/07/03 14:36:59;;;;;;;3.50;3.20;;;;;;;;;;5010021;28;20022;-75
2021/07/03 14:39:25;;;;;;;4.13;3.72;;;;;;;;;;5023710;28;20045;-75
2021/07/03 14:41:52;;;;;;;4.03;3.72;;;;;;;;;;5001680;28;20031;-75